createdAt,value
2023-08-07T00:00:56.812Z,12.70
2023-08-07T00:03:28.709Z,12.60
2023-08-07T00:06:00.563Z,12.60
2023-08-07T00:08:32.716Z,12.40
2023-08-07T00:11:09.708Z,12.50
2023-08-07T00:13:42.478Z,12.40
2023-08-07T00:16:12.741Z,12.40
2023-08-07T00:18:42.741Z,12.50
2023-08-07T00:21:16.135Z,12.40
2023-08-07T00:23:47.634Z,12.30
2023-08-07T00:26:17.452Z,12.30
2023-08-07T00:28:47.513Z,12.30
2023-08-07T00:31:17.558Z,12.30
2023-08-07T00:33:48.249Z,12.20
2023-08-07T00:36:18.311Z,12.20
2023-08-07T00:38:49.943Z,12.30
2023-08-07T00:41:21.011Z,12.30
2023-08-07T00:43:52.695Z,12.30
2023-08-07T00:46:23.980Z,12.30
2023-08-07T00:48:54.501Z,12.30
2023-08-07T00:51:25.138Z,12.30
2023-08-07T00:53:56.853Z,12.30
2023-08-07T00:56:28.043Z,12.40
2023-08-07T00:58:59.295Z,12.40
2023-08-07T01:01:29.905Z,12.30
2023-08-07T01:03:59.792Z,12.30
2023-08-07T01:06:30.189Z,12.30
2023-08-07T01:09:00.439Z,12.20
2023-08-07T01:11:36.998Z,12.10
2023-08-07T01:14:11.451Z,12.20
2023-08-07T01:16:48.283Z,12.20
2023-08-07T01:19:26.316Z,12.30
2023-08-07T01:22:08.862Z,12.20
2023-08-07T01:24:42.482Z,12.20
2023-08-07T01:27:38.425Z,12.20
2023-08-07T01:30:18.244Z,12.10
2023-08-07T01:33:09.243Z,12.10
2023-08-07T01:35:42.985Z,12.20
2023-08-07T01:38:16.219Z,12.10
2023-08-07T01:40:48.597Z,12.20
2023-08-07T01:43:20.001Z,12.10
2023-08-07T01:45:50.120Z,12.00
2023-08-07T01:48:21.168Z,12.00
2023-08-07T01:50:51.613Z,11.90
2023-08-07T01:53:22.918Z,12.00
2023-08-07T01:55:53.050Z,12.00
2023-08-07T01:58:23.703Z,12.00
2023-08-07T02:00:53.708Z,12.00
2023-08-07T02:03:23.801Z,12.10
2023-08-07T02:05:54.173Z,12.00
2023-08-07T02:08:25.705Z,12.00
2023-08-07T02:10:55.905Z,12.00
2023-08-07T02:13:25.959Z,12.00
2023-08-07T02:15:56.154Z,12.00
2023-08-07T02:18:26.597Z,11.90
2023-08-07T02:20:56.583Z,11.90
2023-08-07T02:23:29.294Z,11.90
2023-08-07T02:25:58.178Z,11.80
2023-08-07T02:28:28.777Z,11.80
2023-08-07T02:30:58.711Z,11.80
2023-08-07T02:33:31.323Z,11.80
2023-08-07T02:36:00.117Z,11.80
2023-08-07T02:38:31.327Z,11.90
2023-08-07T02:41:01.516Z,11.80
2023-08-07T02:43:34.200Z,11.80
2023-08-07T02:46:04.173Z,11.70
2023-08-07T02:48:34.350Z,11.70
2023-08-07T02:51:04.335Z,11.70
2023-08-07T02:53:34.226Z,11.70
2023-08-07T02:56:04.055Z,11.70
2023-08-07T02:58:34.467Z,11.70
2023-08-07T03:01:07.291Z,11.80
2023-08-07T03:03:37.720Z,11.80
2023-08-07T03:06:08.251Z,11.70
2023-08-07T03:08:39.554Z,11.70
2023-08-07T03:11:10.558Z,11.60
2023-08-07T03:13:40.623Z,11.60
2023-08-07T03:16:10.739Z,11.60
2023-08-07T03:18:39.015Z,11.60
2023-08-07T03:21:09.280Z,11.60
2023-08-07T03:23:41.320Z,11.60
2023-08-07T03:26:18.894Z,11.60
2023-08-07T03:28:50.431Z,11.60
2023-08-07T03:31:20.639Z,11.50
2023-08-07T03:33:50.648Z,11.60
2023-08-07T03:36:20.967Z,11.60
2023-08-07T03:38:56.505Z,11.60
2023-08-07T03:41:26.613Z,11.60
2023-08-07T03:43:56.562Z,11.60
2023-08-07T03:46:26.479Z,11.60
2023-08-07T03:48:56.596Z,11.50
2023-08-07T03:51:27.337Z,11.60
2023-08-07T03:53:58.583Z,11.60
2023-08-07T03:56:29.145Z,11.60
2023-08-07T03:59:00.082Z,11.50
2023-08-07T04:01:33.030Z,11.50
2023-08-07T04:04:04.905Z,11.60
2023-08-07T04:06:35.314Z,11.60
2023-08-07T04:09:06.513Z,11.70
2023-08-07T04:11:37.599Z,11.60
2023-08-07T04:14:07.805Z,11.60
2023-08-07T04:16:43.426Z,11.50
2023-08-07T04:19:29.644Z,11.60
2023-08-07T04:22:01.389Z,11.60
2023-08-07T04:24:37.635Z,11.40
2023-08-07T04:27:09.690Z,11.40
2023-08-07T04:29:59.352Z,11.50
2023-08-07T04:32:34.525Z,11.50
2023-08-07T04:35:06.056Z,11.50
2023-08-07T04:37:38.428Z,11.50
2023-08-07T04:40:18.801Z,11.60
2023-08-07T04:42:56.870Z,11.50
2023-08-07T04:45:32.837Z,11.50
2023-08-07T04:48:10.612Z,11.60
2023-08-07T04:50:45.546Z,11.60
2023-08-07T04:53:20.594Z,11.50
2023-08-07T04:55:56.258Z,11.50
2023-08-07T04:58:27.622Z,11.50
2023-08-07T05:01:00.812Z,11.60
2023-08-07T05:03:32.720Z,11.60
2023-08-07T05:06:10.429Z,11.60
2023-08-07T05:08:41.419Z,11.60
2023-08-07T05:11:14.717Z,11.60
2023-08-07T05:13:53.187Z,11.60
2023-08-07T05:16:25.138Z,11.60
2023-08-07T05:18:57.792Z,11.60
2023-08-07T05:21:32.851Z,11.60
2023-08-07T05:24:04.281Z,11.50
2023-08-07T05:26:44.955Z,11.60
2023-08-07T05:29:19.604Z,11.60
2023-08-07T05:31:51.829Z,11.60
2023-08-07T05:34:29.343Z,11.50
2023-08-07T05:36:59.086Z,11.50
2023-08-07T05:39:31.923Z,11.60
2023-08-07T05:42:04.671Z,11.60
2023-08-07T05:44:37.696Z,11.60
2023-08-07T05:47:10.639Z,11.60
2023-08-07T05:49:45.286Z,11.60
2023-08-07T05:52:18.442Z,11.70
2023-08-07T05:54:55.854Z,11.60
2023-08-07T05:57:29.804Z,11.70
2023-08-07T06:00:02.621Z,11.70
2023-08-07T06:02:37.114Z,11.70
2023-08-07T06:05:10.830Z,11.60
2023-08-07T06:07:42.926Z,11.60
2023-08-07T06:10:24.929Z,11.60
2023-08-07T06:13:04.608Z,11.70
2023-08-07T06:15:44.215Z,11.60
2023-08-07T06:18:18.074Z,11.50
2023-08-07T06:20:56.342Z,11.60
2023-08-07T06:23:33.966Z,11.60
2023-08-07T06:26:32.438Z,11.60
2023-08-07T06:29:04.534Z,11.60
2023-08-07T06:31:43.874Z,11.60
2023-08-07T06:34:15.492Z,11.70
2023-08-07T06:36:50.550Z,11.80
2023-08-07T06:39:29.940Z,11.70
2023-08-07T06:42:02.112Z,11.70
2023-08-07T06:44:36.554Z,11.80
2023-08-07T06:47:11.175Z,11.70
2023-08-07T06:49:45.012Z,11.70
2023-08-07T06:52:26.092Z,11.80
2023-08-07T06:54:54.869Z,11.70
2023-08-07T06:57:38.804Z,11.90
2023-08-07T07:00:17.940Z,11.80
2023-08-07T07:02:55.399Z,11.90
2023-08-07T07:05:34.163Z,11.90
2023-08-07T07:08:09.127Z,11.90
2023-08-07T07:10:43.610Z,11.90
2023-08-07T07:13:18.828Z,12.00
2023-08-07T07:15:51.081Z,12.00
2023-08-07T07:18:26.671Z,12.00
2023-08-07T07:21:11.958Z,12.00
2023-08-07T07:23:50.779Z,12.00
2023-08-07T07:26:20.814Z,12.00
2023-08-07T07:29:00.719Z,12.10
2023-08-07T07:31:36.852Z,12.00
2023-08-07T07:34:12.932Z,12.10
2023-08-07T07:36:54.664Z,12.10
2023-08-07T07:39:30.168Z,12.00
2023-08-07T07:42:05.454Z,12.00
2023-08-07T07:45:00.732Z,12.10
2023-08-07T07:47:41.565Z,12.10
2023-08-07T07:50:20.987Z,12.00
2023-08-07T07:52:54.388Z,12.10
2023-08-07T07:55:26.899Z,12.20
2023-08-07T07:58:00.441Z,12.20
2023-08-07T08:00:34.455Z,12.10
2023-08-07T08:03:10.713Z,12.10
2023-08-07T08:05:47.740Z,12.10
2023-08-07T08:08:42.104Z,12.10
2023-08-07T08:11:15.038Z,12.10
2023-08-07T08:13:47.781Z,12.20
2023-08-07T08:16:23.642Z,12.20
2023-08-07T08:18:59.132Z,12.20
2023-08-07T08:21:35.552Z,12.20
2023-08-07T08:24:13.263Z,12.10
2023-08-07T08:26:43.657Z,12.20
2023-08-07T08:29:21.238Z,12.10
2023-08-07T08:31:57.929Z,12.10
2023-08-07T08:34:43.839Z,12.10
2023-08-07T08:37:14.744Z,12.20
2023-08-07T08:39:50.012Z,12.30
2023-08-07T08:42:28.101Z,12.20
2023-08-07T08:45:01.694Z,12.20
2023-08-07T08:47:40.535Z,12.10
2023-08-07T08:50:24.760Z,12.10
2023-08-07T08:52:59.016Z,12.20
2023-08-07T08:55:31.070Z,12.30
2023-08-07T08:58:17.760Z,12.30
2023-08-07T09:00:53.639Z,12.30
2023-08-07T09:03:27.289Z,12.40
2023-08-07T09:06:04.450Z,12.50
2023-08-07T09:08:35.020Z,12.60
2023-08-07T09:11:13.747Z,12.60
2023-08-07T09:13:47.646Z,12.60
2023-08-07T09:16:22.127Z,12.60
2023-08-07T09:18:55.852Z,12.50
2023-08-07T09:21:29.530Z,12.60
2023-08-07T09:26:49.657Z,12.40
2023-08-07T09:29:26.859Z,12.50
2023-08-07T09:32:06.500Z,12.50
2023-08-07T09:34:41.882Z,12.50
2023-08-07T09:37:20.797Z,12.50
2023-08-07T09:40:03.003Z,12.40
2023-08-07T09:42:39.180Z,12.50
2023-08-07T09:45:23.063Z,12.50
2023-08-07T09:48:12.484Z,12.30
2023-08-07T09:50:42.884Z,12.40
2023-08-07T09:53:31.690Z,12.50
2023-08-07T09:56:06.380Z,12.60
2023-08-07T09:58:54.763Z,12.50
2023-08-07T10:01:24.497Z,12.50
2023-08-07T10:03:58.362Z,12.60
2023-08-07T10:06:30.542Z,12.60
2023-08-07T10:09:06.256Z,12.60
2023-08-07T10:11:48.624Z,12.70
2023-08-07T10:14:26.917Z,12.70
2023-08-07T10:17:16.598Z,12.80
2023-08-07T10:19:52.255Z,12.70
2023-08-07T10:22:24.805Z,12.70
2023-08-07T10:25:10.012Z,12.60
2023-08-07T10:27:42.980Z,12.70
2023-08-07T10:30:22.330Z,12.60
2023-08-07T10:32:57.659Z,12.70
2023-08-07T10:35:36.066Z,12.80
2023-08-07T10:38:22.745Z,12.80
2023-08-07T10:41:18.290Z,12.70
2023-08-07T10:43:50.950Z,12.80
2023-08-07T10:46:25.763Z,12.80
2023-08-07T10:49:02.881Z,12.80
2023-08-07T10:51:35.952Z,12.90
2023-08-07T10:54:18.334Z,12.90
2023-08-07T10:57:06.103Z,13.00
2023-08-07T10:59:48.147Z,13.10
2023-08-07T11:02:53.827Z,13.00
2023-08-07T11:05:32.011Z,12.90
2023-08-07T11:08:03.534Z,13.00
2023-08-07T11:10:36.227Z,13.10
2023-08-07T11:13:11.485Z,13.10
2023-08-07T11:15:57.363Z,13.00
2023-08-07T11:18:32.213Z,13.00
2023-08-07T11:21:19.369Z,13.00
2023-08-07T11:24:01.609Z,13.20
2023-08-07T11:26:41.180Z,13.10
2023-08-07T11:29:26.636Z,13.10
2023-08-07T11:31:56.709Z,13.20
2023-08-07T11:34:32.242Z,13.10
2023-08-07T11:37:04.848Z,12.90
2023-08-07T11:39:38.009Z,13.00
2023-08-07T11:42:09.161Z,13.10
2023-08-07T11:44:50.960Z,13.00
2023-08-07T11:47:22.018Z,13.00
2023-08-07T11:50:03.720Z,13.10
2023-08-07T11:52:35.265Z,13.00
2023-08-07T11:55:17.893Z,13.10
2023-08-07T11:57:51.138Z,13.10
2023-08-07T12:00:46.057Z,13.00
2023-08-07T12:03:29.840Z,13.00
2023-08-07T12:06:01.787Z,13.10
2023-08-07T12:08:37.639Z,13.10
2023-08-07T12:11:14.696Z,13.20
2023-08-07T12:13:58.299Z,13.20
2023-08-07T12:16:42.521Z,13.10
2023-08-07T12:19:17.713Z,13.10
2023-08-07T12:21:55.023Z,13.20
2023-08-07T12:24:28.855Z,13.20
2023-08-07T12:26:59.461Z,13.10
2023-08-07T12:32:20.714Z,13.10
2023-08-07T12:37:31.897Z,13.20
2023-08-07T12:42:58.219Z,13.30
2023-08-07T12:48:16.434Z,13.40
2023-08-07T12:51:05.669Z,13.30
2023-08-07T12:53:36.922Z,13.40
2023-08-07T12:56:12.944Z,13.60
2023-08-07T12:58:47.035Z,13.70
2023-08-07T13:01:18.244Z,14.00
2023-08-07T13:03:55.679Z,14.20
2023-08-07T13:06:27.853Z,14.50
2023-08-07T13:09:02.656Z,14.80
2023-08-07T13:11:32.797Z,15.30
2023-08-07T13:14:10.001Z,15.80
2023-08-07T13:16:42.328Z,16.20
2023-08-07T13:19:32.712Z,16.20
2023-08-07T13:22:07.447Z,16.20
2023-08-07T13:24:39.028Z,16.40
2023-08-07T13:27:13.520Z,16.20
2023-08-07T13:29:52.813Z,16.20
2023-08-07T13:32:32.244Z,16.10
2023-08-07T13:35:08.699Z,16.20
2023-08-07T13:37:42.282Z,16.10
2023-08-07T13:40:16.445Z,16.20
2023-08-07T13:42:58.654Z,16.20
2023-08-07T13:45:35.323Z,16.00
2023-08-07T13:48:15.932Z,16.00
2023-08-07T13:50:46.888Z,16.00
2023-08-07T13:53:30.247Z,15.90
2023-08-07T13:56:03.285Z,15.70
2023-08-07T13:58:49.141Z,15.70
2023-08-07T14:01:22.969Z,15.80
2023-08-07T14:03:55.782Z,16.00
2023-08-07T14:06:27.779Z,16.40
2023-08-07T14:09:08.719Z,16.60
2023-08-07T14:11:51.333Z,16.80
2023-08-07T14:14:37.717Z,16.70
2023-08-07T14:17:11.782Z,16.90
2023-08-07T14:19:42.495Z,17.00
2023-08-07T14:22:15.965Z,17.40
2023-08-07T14:24:52.674Z,17.70
2023-08-07T14:27:22.914Z,17.90
2023-08-07T14:30:03.382Z,18.20
2023-08-07T14:32:40.868Z,18.20
2023-08-07T14:35:34.763Z,18.30
2023-08-07T14:38:11.365Z,18.60
2023-08-07T14:40:48.217Z,18.30
2023-08-07T14:43:28.310Z,18.50
2023-08-07T14:46:04.091Z,18.70
2023-08-07T14:48:38.334Z,18.50
2023-08-07T14:51:21.882Z,18.40
2023-08-07T14:54:13.477Z,18.40
2023-08-07T14:56:44.848Z,18.50
2023-08-07T14:59:22.870Z,18.50
2023-08-07T15:01:54.812Z,18.50
2023-08-07T15:04:27.560Z,18.30
2023-08-07T15:07:04.798Z,18.20
2023-08-07T15:09:36.940Z,18.20
2023-08-07T15:12:10.443Z,18.30
2023-08-07T15:14:49.027Z,18.40
2023-08-07T15:17:25.454Z,18.80
2023-08-07T15:20:00.746Z,19.20
2023-08-07T15:22:33.569Z,19.20
2023-08-07T15:25:05.375Z,19.40
2023-08-07T15:27:43.455Z,19.20
2023-08-07T15:30:18.481Z,19.20
2023-08-07T15:32:50.793Z,19.00
2023-08-07T15:35:30.622Z,19.00
2023-08-07T15:38:04.079Z,18.80
2023-08-07T15:40:37.416Z,18.70
2023-08-07T15:43:11.166Z,18.50
2023-08-07T15:45:40.127Z,18.30
2023-08-07T15:48:18.099Z,18.00
2023-08-07T15:50:53.200Z,18.00
2023-08-07T15:53:39.483Z,18.20
2023-08-07T15:56:29.084Z,18.40
2023-08-07T15:59:01.578Z,18.40
2023-08-07T16:01:33.661Z,18.00
2023-08-07T16:04:12.328Z,17.80
2023-08-07T16:07:01.714Z,17.90
2023-08-07T16:09:33.356Z,17.90
2023-08-07T16:12:18.847Z,17.80
2023-08-07T16:14:57.378Z,17.70
2023-08-07T16:17:29.618Z,17.60
2023-08-07T16:20:04.477Z,17.50
2023-08-07T16:22:53.589Z,17.50
2023-08-07T16:25:28.345Z,17.80
2023-08-07T16:28:01.252Z,18.00
2023-08-07T16:30:59.104Z,18.20
2023-08-07T16:33:34.709Z,18.10
2023-08-07T16:36:21.643Z,17.90
2023-08-07T16:41:37.464Z,17.70
2023-08-07T16:44:16.409Z,17.80
2023-08-07T16:46:53.957Z,17.80
2023-08-07T16:49:25.397Z,17.90
2023-08-07T16:51:59.334Z,17.90
2023-08-07T16:54:30.685Z,17.70
2023-08-07T16:57:14.249Z,17.60
2023-08-07T16:59:45.106Z,17.60
2023-08-07T17:02:26.678Z,17.40
2023-08-07T17:05:01.977Z,17.30
2023-08-07T17:07:36.042Z,17.20
2023-08-07T17:10:17.453Z,17.30
2023-08-07T17:12:58.403Z,17.20
2023-08-07T17:15:38.919Z,17.10
2023-08-07T17:18:18.378Z,16.90
2023-08-07T17:20:52.374Z,16.40
2023-08-07T17:23:26.922Z,15.90
2023-08-07T17:26:04.414Z,15.50
2023-08-07T17:28:40.925Z,15.30
2023-08-07T17:31:19.588Z,15.10
2023-08-07T17:33:50.021Z,14.70
2023-08-07T17:36:23.388Z,14.40
2023-08-07T17:39:04.705Z,14.50
2023-08-07T17:44:33.416Z,14.60
2023-08-07T17:47:19.915Z,14.60
2023-08-07T17:49:53.900Z,14.40
2023-08-07T17:52:33.179Z,14.40
2023-08-07T17:55:12.883Z,14.30
2023-08-07T17:58:01.866Z,14.40
2023-08-07T18:00:32.152Z,14.40
2023-08-07T18:03:04.592Z,14.60
2023-08-07T18:05:42.772Z,14.50
2023-08-07T18:08:26.626Z,14.50
2023-08-07T18:10:57.393Z,14.30
2023-08-07T18:13:30.150Z,14.20
2023-08-07T18:16:03.824Z,14.20
2023-08-07T18:18:41.202Z,14.30
2023-08-07T18:21:27.544Z,14.20
2023-08-07T18:24:04.975Z,14.20
2023-08-07T18:26:35.100Z,14.10
2023-08-07T18:29:15.239Z,14.00
2023-08-07T18:31:53.597Z,14.00
2023-08-07T18:34:26.569Z,13.90
2023-08-07T18:37:08.504Z,13.80
2023-08-07T18:39:42.807Z,13.80
2023-08-07T18:42:13.903Z,13.90
2023-08-07T18:45:09.034Z,13.90
2023-08-07T18:47:50.405Z,14.00
2023-08-07T18:53:35.633Z,13.90
2023-08-07T18:56:11.718Z,13.90
2023-08-07T18:58:45.137Z,13.90
2023-08-07T19:01:18.607Z,13.90
2023-08-07T19:03:52.756Z,13.90
2023-08-07T19:06:25.821Z,13.90
2023-08-07T19:08:59.935Z,13.90
2023-08-07T19:11:47.038Z,13.80
2023-08-07T19:14:18.832Z,13.80
2023-08-07T19:17:11.128Z,13.80
2023-08-07T19:19:41.104Z,13.80
2023-08-07T19:22:16.317Z,13.80
2023-08-07T19:24:50.721Z,13.70
2023-08-07T19:27:23.326Z,13.60
2023-08-07T19:30:00.657Z,13.50
2023-08-07T19:32:38.806Z,13.40
2023-08-07T19:38:01.617Z,13.20
2023-08-07T19:40:35.239Z,13.20
2023-08-07T19:46:30.549Z,13.00
2023-08-07T19:49:08.218Z,12.90
2023-08-07T19:51:42.952Z,12.80
2023-08-07T19:54:24.640Z,12.70
2023-08-07T19:57:24.249Z,12.60
2023-08-07T20:03:06.804Z,12.30
2023-08-07T20:05:47.254Z,12.30
2023-08-07T20:08:18.631Z,12.30
2023-08-07T20:11:00.693Z,12.30
2023-08-07T20:13:37.900Z,12.30
2023-08-07T20:16:30.482Z,12.30
2023-08-07T20:19:05.028Z,12.40
2023-08-07T20:22:01.114Z,12.50
2023-08-07T20:24:36.041Z,12.60
2023-08-07T20:27:32.356Z,12.70
2023-08-07T20:30:08.650Z,12.80
2023-08-07T20:33:42.934Z,12.80
2023-08-07T20:35:53.002Z,12.80
2023-08-07T20:38:29.317Z,12.70
2023-08-07T20:41:27.507Z,12.70
2023-08-07T20:46:55.257Z,12.70
2023-08-07T20:49:28.588Z,12.70
2023-08-07T20:52:02.836Z,12.80
2023-08-07T20:54:37.361Z,12.80
2023-08-07T20:57:13.729Z,12.90
2023-08-07T20:59:47.783Z,12.90
2023-08-07T21:02:34.661Z,13.00
2023-08-07T21:05:14.037Z,13.00
2023-08-07T21:07:49.300Z,13.20
2023-08-07T21:10:24.834Z,13.20
2023-08-07T21:15:55.949Z,13.30
2023-08-07T21:18:28.411Z,13.40
2023-08-07T21:21:19.638Z,13.40
2023-08-07T21:24:00.899Z,13.50
2023-08-07T21:26:33.626Z,13.40
2023-08-07T21:29:07.611Z,13.40
2023-08-07T21:32:02.282Z,13.10
2023-08-07T21:35:23.294Z,13.10
2023-08-07T21:37:49.560Z,13.00
2023-08-07T21:40:31.163Z,12.90
2023-08-07T21:43:05.324Z,12.90
2023-08-07T21:45:36.579Z,13.10
2023-08-07T21:48:11.736Z,13.10
2023-08-07T21:50:40.010Z,13.00
2023-08-07T21:53:16.995Z,13.00
2023-08-07T21:55:51.704Z,13.00
2023-08-07T21:58:24.495Z,12.70
2023-08-07T22:01:07.916Z,12.60
2023-08-07T22:03:40.606Z,12.50
2023-08-07T22:06:10.786Z,12.30
2023-08-07T22:08:42.094Z,12.20
2023-08-07T22:11:21.945Z,12.10
2023-08-07T22:13:56.538Z,11.90
2023-08-07T22:16:27.427Z,11.80
2023-08-07T22:18:59.702Z,11.70
2023-08-07T22:21:31.103Z,11.60
2023-08-07T22:24:02.103Z,11.60
2023-08-07T22:26:35.474Z,11.60
2023-08-07T22:29:08.524Z,11.60
2023-08-07T22:31:42.664Z,11.60
2023-08-07T22:34:20.775Z,11.70
2023-08-07T22:36:57.905Z,11.80
2023-08-07T22:39:33.813Z,11.80
2023-08-07T22:42:03.819Z,11.90
2023-08-07T22:44:35.251Z,11.90
2023-08-07T22:47:11.728Z,12.00
2023-08-07T22:49:47.964Z,12.10
2023-08-07T22:52:22.016Z,12.10
2023-08-07T22:55:07.382Z,12.30
2023-08-07T22:57:39.202Z,12.40
2023-08-07T23:00:19.007Z,12.50
2023-08-07T23:02:52.479Z,12.60
2023-08-07T23:05:31.766Z,12.60
2023-08-07T23:08:04.600Z,12.60
2023-08-07T23:10:43.697Z,12.60
2023-08-07T23:13:14.596Z,12.70
2023-08-07T23:16:02.437Z,12.60
2023-08-07T23:18:35.855Z,12.60
2023-08-07T23:21:12.539Z,12.50
2023-08-07T23:23:49.922Z,12.30
2023-08-07T23:26:23.843Z,12.20
2023-08-07T23:28:58.702Z,12.10
2023-08-07T23:31:28.850Z,12.10
2023-08-07T23:33:59.468Z,12.20
2023-08-07T23:36:38.485Z,12.30
2023-08-07T23:39:28.713Z,12.40
2023-08-07T23:42:04.426Z,12.60
2023-08-07T23:44:37.344Z,12.70
2023-08-07T23:47:11.021Z,12.70
2023-08-07T23:49:48.585Z,12.60
2023-08-07T23:52:30.257Z,12.70
2023-08-07T23:55:02.158Z,12.80
2023-08-07T23:57:35.386Z,12.70
